Time;durP1;ratioP1;P1;durP2;ratioP2;P2;SDS_P1;SDS_P2;PMS_P1;PMS_P2;Temp;Humidity;BMP_temperature;BMP_pressure;BME280_temperature;BME280_humidity;BME280_pressure;Samples;Min_cycle;Max_cycle;Signal;HPM_P1;HPM_P2
2022/12/13 00:01:44;;;;;;;68.05;41.50;;;;;;;;;;10094958;28;20038;-67
2022/12/13 00:06:40;;;;;;;72.43;41.17;;;;;;;;;;10099349;28;20051;-66
2022/12/13 00:11:37;;;;;;;61.42;39.42;;;;;;;;;;10093764;28;20430;-66
2022/12/13 00:16:33;;;;;;;63.70;39.25;;;;;;;;;;10104915;28;20049;-66
2022/12/13 00:21:31;;;;;;;54.35;36.72;;;;;;;;;;10107174;28;20120;-66
2022/12/13 00:26:29;;;;;;;63.40;35.42;;;;;;;;;;10101279;28;20046;-66
2022/12/13 00:31:26;;;;;;;59.85;35.47;;;;;;;;;;10092669;28;20225;-66
2022/12/13 00:36:42;;;;;;;50.53;32.78;;;;;;;;;;10108976;28;20055;-67
2022/12/13 00:41:39;;;;;;;59.50;34.97;;;;;;;;;;10108437;28;20055;-67
2022/12/13 00:46:35;;;;;;;55.00;35.08;;;;;;;;;;10102123;28;20054;-66
2022/12/13 00:51:32;;;;;;;50.20;34.53;;;;;;;;;;10102741;28;20050;-67
2022/12/13 00:56:29;;;;;;;53.17;35.05;;;;;;;;;;10101722;28;20043;-68
2022/12/13 01:01:30;;;;;;;50.97;31.50;;;;;;;;;;10091072;28;20039;-66
2022/12/13 01:06:35;;;;;;;58.92;34.08;;;;;;;;;;10098975;28;20105;-66
2022/12/13 01:11:31;;;;;;;62.42;34.13;;;;;;;;;;10097771;28;20051;-67
2022/12/13 01:16:28;;;;;;;58.58;36.38;;;;;;;;;;10102524;28;20125;-67
2022/12/13 01:21:24;;;;;;;57.08;33.15;;;;;;;;;;10104619;28;20045;-67
2022/12/13 01:26:20;;;;;;;64.97;34.75;;;;;;;;;;10101088;28;20051;-66
2022/12/13 01:31:18;;;;;;;64.40;35.60;;;;;;;;;;10110486;28;20046;-67
2022/12/13 01:36:16;;;;;;;59.38;38.30;;;;;;;;;;10108001;28;20121;-67
2022/12/13 01:41:14;;;;;;;63.92;38.97;;;;;;;;;;10112415;28;20055;-66
2022/12/13 01:46:14;;;;;;;61.78;36.72;;;;;;;;;;10107829;28;20054;-67
2022/12/13 01:51:13;;;;;;;55.17;35.65;;;;;;;;;;10109425;28;20066;-67
2022/12/13 01:56:11;;;;;;;65.78;39.15;;;;;;;;;;10105309;28;20774;-66
2022/12/13 02:01:08;;;;;;;57.83;35.40;;;;;;;;;;10106581;28;20046;-65
2022/12/13 02:06:07;;;;;;;57.97;35.17;;;;;;;;;;10099597;28;20051;-66
2022/12/13 02:11:04;;;;;;;62.85;35.03;;;;;;;;;;10111010;28;20049;-67
2022/12/13 02:16:03;;;;;;;63.47;36.65;;;;;;;;;;10113696;28;20049;-67
2022/12/13 02:21:05;;;;;;;63.20;36.30;;;;;;;;;;10110598;28;20039;-67
2022/12/13 02:26:20;;;;;;;61.55;35.92;;;;;;;;;;10105858;28;20058;-67
2022/12/13 02:31:29;;;;;;;55.92;34.38;;;;;;;;;;10120582;28;20053;-68
2022/12/13 02:36:44;;;;;;;55.08;33.92;;;;;;;;;;10100788;28;20497;-68
2022/12/13 02:41:46;;;;;;;57.15;34.50;;;;;;;;;;10106712;28;20137;-68
2022/12/13 02:46:47;;;;;;;57.17;35.28;;;;;;;;;;10106543;28;20051;-67
2022/12/13 02:51:44;;;;;;;56.40;34.63;;;;;;;;;;10111853;28;20497;-64
2022/12/13 02:56:40;;;;;;;57.70;35.58;;;;;;;;;;10125249;28;20050;-66
2022/12/13 03:01:36;;;;;;;57.58;36.08;;;;;;;;;;10105871;28;20521;-66
2022/12/13 03:06:45;;;;;;;54.63;32.95;;;;;;;;;;10095629;28;20100;-66
2022/12/13 03:17:01;;;;;;;56.58;33.22;;;;;;;;;;10101042;28;20444;-66
2022/12/13 03:21:57;;;;;;;52.22;32.67;;;;;;;;;;10103810;28;20463;-67
2022/12/13 03:26:54;;;;;;;52.85;33.13;;;;;;;;;;10099900;28;20038;-67
2022/12/13 03:31:51;;;;;;;48.55;31.55;;;;;;;;;;10100725;28;20416;-67
2022/12/13 03:36:47;;;;;;;52.75;34.42;;;;;;;;;;10104760;28;20054;-66
2022/12/13 03:41:43;;;;;;;56.65;34.65;;;;;;;;;;10100252;28;20053;-66
2022/12/13 03:46:40;;;;;;;54.47;34.03;;;;;;;;;;10101180;28;20054;-66
2022/12/13 03:51:36;;;;;;;55.47;33.92;;;;;;;;;;10101011;28;20112;-65
2022/12/13 03:56:32;;;;;;;54.35;32.55;;;;;;;;;;10095575;28;20061;-66
2022/12/13 04:01:28;;;;;;;54.95;34.10;;;;;;;;;;10106643;28;20076;-65
2022/12/13 04:06:25;;;;;;;50.72;32.10;;;;;;;;;;10104706;28;20523;-66
2022/12/13 04:16:42;;;;;;;47.30;31.42;;;;;;;;;;10089781;28;20056;-66
2022/12/13 04:21:39;;;;;;;57.03;33.42;;;;;;;;;;10097626;28;20241;-67
2022/12/13 04:26:35;;;;;;;51.33;33.95;;;;;;;;;;10092415;28;20062;-67
2022/12/13 04:31:32;;;;;;;56.78;34.33;;;;;;;;;;10096975;28;20514;-67
2022/12/13 04:36:28;;;;;;;53.03;33.42;;;;;;;;;;10094522;28;20046;-66
2022/12/13 04:41:28;;;;;;;51.97;33.35;;;;;;;;;;10103270;28;20083;-66
2022/12/13 04:46:30;;;;;;;51.38;35.00;;;;;;;;;;10089703;28;20881;-66
2022/12/13 04:51:26;;;;;;;51.22;31.20;;;;;;;;;;10093993;28;20126;-65
2022/12/13 04:56:23;;;;;;;47.70;30.98;;;;;;;;;;10095014;28;20050;-65
2022/12/13 05:01:19;;;;;;;52.78;32.67;;;;;;;;;;10085116;28;20047;-65
2022/12/13 05:06:15;;;;;;;50.78;30.63;;;;;;;;;;10090953;28;20055;-65
2022/12/13 05:11:23;;;;;;;51.95;30.35;;;;;;;;;;10095641;28;20053;-65
2022/12/13 05:16:19;;;;;;;50.90;30.77;;;;;;;;;;10091464;28;20525;-65
2022/12/13 05:21:20;;;;;;;48.67;32.35;;;;;;;;;;10086884;28;20050;-66
2022/12/13 05:26:16;;;;;;;43.42;30.05;;;;;;;;;;10095147;28;20447;-66
2022/12/13 05:31:12;;;;;;;50.08;31.55;;;;;;;;;;10103814;28;20584;-66
2022/12/13 05:36:21;;;;;;;53.83;32.13;;;;;;;;;;10100502;28;20051;-66
2022/12/13 05:41:19;;;;;;;45.88;30.88;;;;;;;;;;10098314;28;20118;-66
2022/12/13 05:46:15;;;;;;;46.97;32.15;;;;;;;;;;10088084;28;20122;-66
2022/12/13 05:51:12;;;;;;;50.38;32.10;;;;;;;;;;10092154;28;20053;-66
2022/12/13 05:56:09;;;;;;;50.55;31.38;;;;;;;;;;10087500;28;20050;-65
2022/12/13 06:01:07;;;;;;;42.58;30.45;;;;;;;;;;10090868;28;20047;-66
2022/12/13 06:06:07;;;;;;;47.20;32.05;;;;;;;;;;10086040;28;20497;-65
2022/12/13 06:11:04;;;;;;;46.55;29.30;;;;;;;;;;10090517;28;20054;-66
2022/12/13 06:16:07;;;;;;;43.92;30.30;;;;;;;;;;10122599;28;20415;-66
2022/12/13 06:21:18;;;;;;;49.95;30.63;;;;;;;;;;10104533;28;20043;-65
2022/12/13 06:26:15;;;;;;;46.10;29.58;;;;;;;;;;10099442;28;20047;-66
2022/12/13 06:31:11;;;;;;;49.53;31.45;;;;;;;;;;10111875;28;20042;-66
2022/12/13 06:36:08;;;;;;;48.95;30.42;;;;;;;;;;10108007;28;20045;-66
2022/12/13 06:41:05;;;;;;;51.17;30.75;;;;;;;;;;10095662;28;20050;-65
2022/12/13 06:46:02;;;;;;;47.63;30.45;;;;;;;;;;10104668;28;20058;-65
2022/12/13 06:51:05;;;;;;;47.92;31.73;;;;;;;;;;10103610;28;20122;-65
2022/12/13 06:56:09;;;;;;;44.20;30.75;;;;;;;;;;10105654;28;20047;-65
2022/12/13 07:01:07;;;;;;;45.13;29.92;;;;;;;;;;10106532;28;20050;-65
2022/12/13 07:06:10;;;;;;;51.15;33.03;;;;;;;;;;10093979;28;20515;-65
2022/12/13 07:11:06;;;;;;;51.13;31.35;;;;;;;;;;10103587;28;20146;-65
2022/12/13 07:16:02;;;;;;;47.33;31.17;;;;;;;;;;10111257;28;20057;-65
2022/12/13 07:20:59;;;;;;;48.55;32.65;;;;;;;;;;10096875;28;20075;-65
2022/12/13 07:25:55;;;;;;;50.28;31.58;;;;;;;;;;10095977;28;20046;-65
2022/12/13 07:30:51;;;;;;;45.80;29.73;;;;;;;;;;10093675;28;20525;-65
2022/12/13 07:35:48;;;;;;;43.10;29.13;;;;;;;;;;10100303;28;20129;-64
2022/12/13 07:40:50;;;;;;;41.88;29.25;;;;;;;;;;10083696;28;20051;-65
2022/12/13 07:45:46;;;;;;;46.53;31.10;;;;;;;;;;10103154;28;20051;-66
2022/12/13 07:50:43;;;;;;;47.22;30.45;;;;;;;;;;10105388;28;20052;-65
2022/12/13 07:55:39;;;;;;;46.20;29.55;;;;;;;;;;10103444;28;20077;-65
2022/12/13 08:00:36;;;;;;;44.42;28.33;;;;;;;;;;10100140;28;20063;-65
2022/12/13 08:05:33;;;;;;;49.92;29.75;;;;;;;;;;10116201;28;20069;-65
2022/12/13 08:10:34;;;;;;;41.20;28.43;;;;;;;;;;10106066;28;20070;-65
2022/12/13 08:15:30;;;;;;;50.15;30.58;;;;;;;;;;10097568;28;20057;-64
2022/12/13 08:20:26;;;;;;;42.80;27.83;;;;;;;;;;10081736;28;20054;-64
2022/12/13 08:25:23;;;;;;;46.28;28.58;;;;;;;;;;10082387;28;20472;-65
2022/12/13 08:30:19;;;;;;;42.17;26.80;;;;;;;;;;10093109;28;20050;-65
2022/12/13 08:35:18;;;;;;;53.60;29.48;;;;;;;;;;10091540;28;20055;-65
2022/12/13 08:40:14;;;;;;;47.10;28.00;;;;;;;;;;10085060;28;20465;-65
2022/12/13 08:45:11;;;;;;;45.85;28.20;;;;;;;;;;10088816;28;20068;-64
2022/12/13 08:50:07;;;;;;;40.60;27.40;;;;;;;;;;10104119;28;20477;-65
2022/12/13 08:55:03;;;;;;;46.10;27.83;;;;;;;;;;10098745;28;20085;-65
2022/12/13 09:00:00;;;;;;;41.70;29.75;;;;;;;;;;10106354;28;20070;-64
2022/12/13 09:04:56;;;;;;;44.20;27.25;;;;;;;;;;10102834;28;20494;-65
2022/12/13 09:09:52;;;;;;;53.85;28.77;;;;;;;;;;10098130;28;20528;-64
2022/12/13 09:14:50;;;;;;;43.13;28.48;;;;;;;;;;10106137;28;20047;-65
2022/12/13 09:19:46;;;;;;;50.05;28.50;;;;;;;;;;10099232;28;20476;-64
2022/12/13 09:24:43;;;;;;;45.83;28.23;;;;;;;;;;10100099;28;20127;-65
2022/12/13 09:29:46;;;;;;;46.20;28.15;;;;;;;;;;10098134;28;20047;-64
2022/12/13 09:34:42;;;;;;;44.25;27.23;;;;;;;;;;10103392;28;20053;-64
2022/12/13 09:39:41;;;;;;;39.88;27.25;;;;;;;;;;10096649;28;20398;-65
2022/12/13 09:44:39;;;;;;;36.53;26.73;;;;;;;;;;10097792;28;20046;-65
2022/12/13 09:49:45;;;;;;;44.67;25.67;;;;;;;;;;10105710;28;20051;-63
2022/12/13 09:54:50;;;;;;;38.92;25.08;;;;;;;;;;10113490;28;20129;-64
2022/12/13 09:59:47;;;;;;;33.20;24.77;;;;;;;;;;10101063;28;20043;-64
2022/12/13 10:04:43;;;;;;;41.55;23.63;;;;;;;;;;10107208;28;20058;-64
2022/12/13 10:09:40;;;;;;;33.80;22.90;;;;;;;;;;10098721;28;20042;-63
2022/12/13 10:14:39;;;;;;;35.35;23.95;;;;;;;;;;10116148;28;20137;-64
2022/12/13 10:19:37;;;;;;;34.90;22.75;;;;;;;;;;10097825;28;20781;-63
2022/12/13 10:24:49;;;;;;;36.15;23.55;;;;;;;;;;10096773;28;20074;-64
2022/12/13 10:30:03;;;;;;;35.15;23.02;;;;;;;;;;10096824;28;20047;-64
2022/12/13 10:34:59;;;;;;;37.28;22.25;;;;;;;;;;10102060;28;20057;-65
2022/12/13 10:39:57;;;;;;;36.05;22.50;;;;;;;;;;10105209;28;20046;-70
2022/12/13 10:45:12;;;;;;;34.42;22.38;;;;;;;;;;10112880;28;20172;-69
2022/12/13 10:50:21;;;;;;;39.05;23.92;;;;;;;;;;10103685;28;20187;-69
2022/12/13 10:55:39;;;;;;;38.53;23.02;;;;;;;;;;10104298;28;20101;-69
2022/12/13 11:00:37;;;;;;;37.35;24.23;;;;;;;;;;10105345;28;20698;-69
2022/12/13 11:05:35;;;;;;;37.38;22.77;;;;;;;;;;10094877;28;20049;-69
2022/12/13 11:10:31;;;;;;;33.25;22.48;;;;;;;;;;10101211;28;20047;-69
2022/12/13 11:15:29;;;;;;;32.80;20.67;;;;;;;;;;10107112;28;20054;-69
2022/12/13 11:20:27;;;;;;;33.13;21.60;;;;;;;;;;10095699;28;20054;-69
2022/12/13 11:25:34;;;;;;;36.00;22.80;;;;;;;;;;10106923;28;20430;-69
2022/12/13 11:30:48;;;;;;;37.45;23.58;;;;;;;;;;10113515;28;20047;-69
2022/12/13 11:36:03;;;;;;;32.15;21.23;;;;;;;;;;10102171;28;20074;-69
2022/12/13 11:41:19;;;;;;;33.17;22.02;;;;;;;;;;10100807;28;20062;-68
2022/12/13 11:46:36;;;;;;;32.58;21.73;;;;;;;;;;10084500;28;20436;-69
2022/12/13 11:51:37;;;;;;;32.13;21.05;;;;;;;;;;10095328;28;20129;-69
2022/12/13 11:56:39;;;;;;;32.78;21.25;;;;;;;;;;10099931;28;20530;-69
2022/12/13 12:01:41;;;;;;;33.55;22.88;;;;;;;;;;10096959;28;20051;-69
2022/12/13 12:06:41;;;;;;;31.25;23.15;;;;;;;;;;10099991;28;20043;-69
2022/12/13 12:11:51;;;;;;;35.10;23.30;;;;;;;;;;10102555;28;20137;-69
2022/12/13 12:16:51;;;;;;;38.00;23.00;;;;;;;;;;10093465;28;20489;-70
2022/12/13 12:22:03;;;;;;;35.03;22.35;;;;;;;;;;10104817;28;20070;-69
2022/12/13 12:27:24;;;;;;;32.75;21.08;;;;;;;;;;10091630;28;20054;-69
2022/12/13 12:32:32;;;;;;;26.98;19.90;;;;;;;;;;10100960;28;20130;-69
2022/12/13 12:37:36;;;;;;;28.27;21.23;;;;;;;;;;10104073;28;20042;-69
2022/12/13 12:42:51;;;;;;;28.35;20.85;;;;;;;;;;10103607;28;20511;-69
2022/12/13 12:48:11;;;;;;;31.92;21.58;;;;;;;;;;10096348;28;20035;-69
2022/12/13 12:53:33;;;;;;;33.88;20.50;;;;;;;;;;10090240;28;20043;-69
2022/12/13 12:58:36;;;;;;;35.30;21.23;;;;;;;;;;10098387;28;20208;-69
2022/12/13 13:03:34;;;;;;;27.88;20.33;;;;;;;;;;10102248;28;20216;-69
2022/12/13 13:08:45;;;;;;;35.45;20.85;;;;;;;;;;10095113;28;20043;-69
2022/12/13 13:13:56;;;;;;;32.35;21.65;;;;;;;;;;10101057;28;20054;-69
2022/12/13 13:18:57;;;;;;;30.90;21.85;;;;;;;;;;10097162;28;20039;-70
2022/12/13 13:24:00;;;;;;;29.80;22.38;;;;;;;;;;10104463;28;20042;-69
2022/12/13 13:29:14;;;;;;;32.67;22.33;;;;;;;;;;10105331;28;20043;-67
2022/12/13 13:34:24;;;;;;;29.92;20.75;;;;;;;;;;10092257;28;20609;-68
2022/12/13 13:39:26;;;;;;;31.00;22.33;;;;;;;;;;10096266;28;20402;-69
2022/12/13 13:44:33;;;;;;;30.90;21.80;;;;;;;;;;10095280;28;20051;-69
2022/12/13 13:49:29;;;;;;;30.77;21.92;;;;;;;;;;10093219;28;20068;-69
2022/12/13 13:54:35;;;;;;;32.95;21.98;;;;;;;;;;10090625;28;20130;-69
2022/12/13 13:59:51;;;;;;;35.17;22.40;;;;;;;;;;10092811;28;20051;-70
2022/12/13 14:05:12;;;;;;;37.72;22.73;;;;;;;;;;10110553;28;20082;-69
2022/12/13 14:10:35;;;;;;;37.47;23.40;;;;;;;;;;10106851;28;20043;-68
2022/12/13 14:15:46;;;;;;;30.88;21.88;;;;;;;;;;10103817;28;20125;-69
2022/12/13 14:20:53;;;;;;;33.28;22.42;;;;;;;;;;10099653;28;20129;-69
2022/12/13 14:25:56;;;;;;;38.45;24.02;;;;;;;;;;10113839;28;20058;-69
2022/12/13 14:30:53;;;;;;;32.70;23.33;;;;;;;;;;10103931;28;20062;-69
2022/12/13 14:35:54;;;;;;;33.90;21.88;;;;;;;;;;10106116;28;20085;-70
2022/12/13 14:40:53;;;;;;;36.95;23.08;;;;;;;;;;10087845;28;20042;-69
2022/12/13 14:45:52;;;;;;;30.70;22.35;;;;;;;;;;10105623;28;20050;-69
2022/12/13 14:50:53;;;;;;;35.03;24.15;;;;;;;;;;10087132;28;20536;-69
2022/12/13 14:56:06;;;;;;;36.80;23.80;;;;;;;;;;10087256;28;20051;-69
2022/12/13 15:01:04;;;;;;;38.58;24.38;;;;;;;;;;10099075;28;20464;-69
2022/12/13 15:06:01;;;;;;;34.22;23.67;;;;;;;;;;10098277;28;20051;-69
2022/12/13 15:10:58;;;;;;;38.30;25.27;;;;;;;;;;10098511;28;20066;-69
2022/12/13 15:15:59;;;;;;;44.17;27.17;;;;;;;;;;10090905;28;20532;-69
2022/12/13 15:20:56;;;;;;;40.65;27.50;;;;;;;;;;10099054;28;20474;-69
2022/12/13 15:25:57;;;;;;;43.58;28.20;;;;;;;;;;10092657;28;20043;-69
2022/12/13 15:30:55;;;;;;;40.08;28.73;;;;;;;;;;10102497;28;20051;-69
2022/12/13 15:36:01;;;;;;;45.67;30.02;;;;;;;;;;10107668;28;20043;-69
2022/12/13 15:40:59;;;;;;;40.95;29.10;;;;;;;;;;10095245;28;20126;-69
2022/12/13 15:45:56;;;;;;;49.30;32.83;;;;;;;;;;10096413;28;20072;-69
2022/12/13 15:51:05;;;;;;;46.67;32.80;;;;;;;;;;10096950;28;20505;-68
2022/12/13 15:56:22;;;;;;;51.80;35.17;;;;;;;;;;10097401;28;20051;-69
2022/12/13 16:01:23;;;;;;;44.53;33.92;;;;;;;;;;10094453;28;20501;-69
2022/12/13 16:06:21;;;;;;;38.87;29.27;;;;;;;;;;10093858;28;21036;-64
2022/12/13 16:11:28;;;;;;;55.22;37.20;;;;;;;;;;10107667;28;20043;-64
2022/12/13 16:16:26;;;;;;;54.63;36.38;;;;;;;;;;10093108;28;20130;-64
2022/12/13 16:21:24;;;;;;;55.33;38.13;;;;;;;;;;10093764;28;20134;-64
2022/12/13 16:26:25;;;;;;;56.80;36.63;;;;;;;;;;10093712;28;20042;-64
2022/12/13 16:31:22;;;;;;;56.20;37.75;;;;;;;;;;10095829;28;20129;-64
2022/12/13 16:36:19;;;;;;;60.10;41.17;;;;;;;;;;10096528;28;20046;-64
2022/12/13 16:41:15;;;;;;;56.60;39.00;;;;;;;;;;10095504;28;20047;-64
2022/12/13 16:46:14;;;;;;;57.85;40.35;;;;;;;;;;10090635;28;20078;-64
2022/12/13 16:51:30;;;;;;;55.90;40.45;;;;;;;;;;10090226;28;20898;-64
2022/12/13 16:56:27;;;;;;;57.25;40.85;;;;;;;;;;10096903;28;20069;-64
2022/12/13 17:01:23;;;;;;;63.97;43.53;;;;;;;;;;10084853;28;20067;-65
2022/12/13 17:06:22;;;;;;;63.28;40.83;;;;;;;;;;10089231;28;20047;-64
2022/12/13 17:11:19;;;;;;;57.88;41.13;;;;;;;;;;10088938;28;20133;-64
2022/12/13 17:16:15;;;;;;;59.55;43.13;;;;;;;;;;10101198;28;20051;-64
2022/12/13 17:21:11;;;;;;;61.22;43.28;;;;;;;;;;10090675;28;20046;-64
2022/12/13 17:26:09;;;;;;;61.42;42.58;;;;;;;;;;10086633;28;20054;-64
2022/12/13 17:31:10;;;;;;;63.92;41.97;;;;;;;;;;10094568;28;20043;-64
2022/12/13 17:36:08;;;;;;;68.15;45.92;;;;;;;;;;10098761;28;20109;-64
2022/12/13 17:41:04;;;;;;;65.18;42.97;;;;;;;;;;10101167;28;20042;-64
2022/12/13 17:46:02;;;;;;;74.32;44.55;;;;;;;;;;10099969;28;20047;-64
2022/12/13 17:50:59;;;;;;;68.47;46.10;;;;;;;;;;10079434;28;20093;-64
2022/12/13 17:55:59;;;;;;;59.65;44.97;;;;;;;;;;10092424;28;20043;-64
2022/12/13 18:00:56;;;;;;;63.80;43.42;;;;;;;;;;10093315;28;20053;-64
2022/12/13 18:05:58;;;;;;;65.82;43.05;;;;;;;;;;10094206;28;20408;-66
2022/12/13 18:10:55;;;;;;;;;;;;;;;;;;10089023;28;20046;-68
2022/12/13 18:16:12;;;;;;;63.15;44.88;;;;;;;;;;10092724;28;19973;-65
2022/12/13 18:21:12;;;;;;;70.53;46.70;;;;;;;;;;10107281;28;20125;-65
2022/12/13 18:26:13;;;;;;;61.80;45.70;;;;;;;;;;10106248;28;20054;-65
2022/12/13 18:31:11;;;;;;;60.78;43.83;;;;;;;;;;10101319;28;20053;-65
2022/12/13 18:36:08;;;;;;;58.15;44.53;;;;;;;;;;10104869;28;20047;-65
2022/12/13 18:41:07;;;;;;;60.42;45.45;;;;;;;;;;10098582;28;20050;-65
2022/12/13 18:46:04;;;;;;;67.93;46.53;;;;;;;;;;10101546;28;20043;-65
2022/12/13 18:51:02;;;;;;;71.97;46.33;;;;;;;;;;10099923;28;20462;-66
2022/12/13 18:56:03;;;;;;;65.80;46.25;;;;;;;;;;10069323;28;20050;-68
2022/12/13 19:01:00;;;;;;;60.28;46.72;;;;;;;;;;10073118;28;20047;-68
2022/12/13 19:05:57;;;;;;;58.63;43.85;;;;;;;;;;10086000;28;20122;-68
2022/12/13 19:10:55;;;;;;;60.53;45.35;;;;;;;;;;10082760;28;20540;-68
2022/12/13 19:15:52;;;;;;;60.15;44.65;;;;;;;;;;10089397;28;20047;-68
2022/12/13 19:20:50;;;;;;;59.75;44.67;;;;;;;;;;10087901;28;20146;-67
2022/12/13 19:25:46;;;;;;;59.60;44.72;;;;;;;;;;10091018;28;20046;-68
2022/12/13 19:30:45;;;;;;;62.78;47.60;;;;;;;;;;10097415;28;20385;-68
2022/12/13 19:35:45;;;;;;;62.08;44.67;;;;;;;;;;10105197;28;20093;-67
2022/12/13 19:40:41;;;;;;;59.10;42.58;;;;;;;;;;10097692;28;20141;-67
2022/12/13 19:45:37;;;;;;;54.85;43.00;;;;;;;;;;10097377;28;20393;-68
2022/12/13 19:50:34;;;;;;;55.00;43.40;;;;;;;;;;10098177;28;20520;-68
2022/12/13 19:55:31;;;;;;;60.95;43.78;;;;;;;;;;10090079;28;20062;-68
2022/12/13 20:00:28;;;;;;;61.08;43.60;;;;;;;;;;10095498;28;20121;-68
2022/12/13 20:05:24;;;;;;;53.28;43.05;;;;;;;;;;10100238;28;20047;-68
2022/12/13 20:10:21;;;;;;;57.30;42.85;;;;;;;;;;10108375;28;22657;-68
2022/12/13 20:15:17;;;;;;;55.90;42.78;;;;;;;;;;10096101;28;20051;-68
2022/12/13 20:20:13;;;;;;;57.08;41.72;;;;;;;;;;10098569;28;20455;-67
2022/12/13 20:25:10;;;;;;;50.60;41.67;;;;;;;;;;10104198;28;20106;-67
2022/12/13 20:30:07;;;;;;;54.65;40.50;;;;;;;;;;10103229;28;20050;-67
2022/12/13 20:35:03;;;;;;;56.63;43.55;;;;;;;;;;10090561;28;20046;-67
2022/12/13 20:40:00;;;;;;;48.60;40.05;;;;;;;;;;10093356;28;20039;-68
2022/12/13 20:44:58;;;;;;;55.30;42.47;;;;;;;;;;10087169;28;20645;-68
2022/12/13 20:49:54;;;;;;;56.72;42.13;;;;;;;;;;10096194;28;20081;-69
2022/12/13 20:54:50;;;;;;;57.97;40.95;;;;;;;;;;10103641;28;20043;-68
2022/12/13 20:59:47;;;;;;;50.85;39.33;;;;;;;;;;10103963;28;20047;-68
2022/12/13 21:04:44;;;;;;;52.08;40.70;;;;;;;;;;10088030;28;20420;-68
2022/12/13 21:09:40;;;;;;;60.55;41.05;;;;;;;;;;10086035;28;20054;-69
2022/12/13 21:14:37;;;;;;;51.33;39.38;;;;;;;;;;10094509;28;20145;-68
2022/12/13 21:19:33;;;;;;;52.05;39.88;;;;;;;;;;10096108;28;20058;-67
2022/12/13 21:24:35;;;;;;;55.33;41.72;;;;;;;;;;10092684;28;20051;-65
2022/12/13 21:29:31;;;;;;;48.03;36.70;;;;;;;;;;10101972;28;20493;-66
2022/12/13 21:34:27;;;;;;;47.58;38.22;;;;;;;;;;10099365;28;20043;-65
2022/12/13 21:39:26;;;;;;;52.90;38.78;;;;;;;;;;10099264;28;20075;-65
2022/12/13 21:44:23;;;;;;;55.90;40.22;;;;;;;;;;10100777;28;20042;-66
2022/12/13 21:49:20;;;;;;;57.53;41.30;;;;;;;;;;10116132;28;20038;-65
2022/12/13 21:54:16;;;;;;;53.45;38.42;;;;;;;;;;10117291;28;20043;-65
2022/12/13 21:59:14;;;;;;;51.13;37.88;;;;;;;;;;10107606;28;20543;-65
2022/12/13 22:04:11;;;;;;;55.15;37.97;;;;;;;;;;10101520;28;20637;-64
2022/12/13 22:09:07;;;;;;;54.25;35.35;;;;;;;;;;10093845;28;20039;-64
2022/12/13 22:14:04;;;;;;;50.88;37.25;;;;;;;;;;10111869;28;20058;-64
2022/12/13 22:19:00;;;;;;;55.72;37.00;;;;;;;;;;10093433;28;20466;-64
2022/12/13 22:23:56;;;;;;;52.00;37.40;;;;;;;;;;10099895;28;20042;-64
2022/12/13 22:28:53;;;;;;;47.08;36.78;;;;;;;;;;10102815;28;20046;-64
2022/12/13 22:33:49;;;;;;;50.90;36.40;;;;;;;;;;10104265;28;20042;-64
2022/12/13 22:38:46;;;;;;;54.92;36.65;;;;;;;;;;10098503;28;20134;-65
2022/12/13 22:43:42;;;;;;;47.45;35.50;;;;;;;;;;10091210;28;20055;-64
2022/12/13 22:48:39;;;;;;;46.15;34.92;;;;;;;;;;10103869;28;20081;-64
2022/12/13 22:53:35;;;;;;;55.05;34.95;;;;;;;;;;10092258;28;20416;-66
2022/12/13 22:58:32;;;;;;;46.83;35.13;;;;;;;;;;10080747;28;20054;-65
2022/12/13 23:03:28;;;;;;;50.50;35.25;;;;;;;;;;10099900;28;20038;-64
2022/12/13 23:08:24;;;;;;;49.03;34.50;;;;;;;;;;10112722;28;20130;-64
2022/12/13 23:13:21;;;;;;;50.85;35.25;;;;;;;;;;10112546;28;20106;-64
2022/12/13 23:18:17;;;;;;;47.83;34.33;;;;;;;;;;10087567;28;20042;-66
2022/12/13 23:23:14;;;;;;;44.75;32.85;;;;;;;;;;10105816;28;20061;-66
2022/12/13 23:28:10;;;;;;;47.30;33.15;;;;;;;;;;10099221;28;20069;-64
2022/12/13 23:33:06;;;;;;;46.15;33.95;;;;;;;;;;10106248;28;20035;-64
2022/12/13 23:38:02;;;;;;;44.13;31.75;;;;;;;;;;10099286;28;20074;-65
2022/12/13 23:42:59;;;;;;;46.17;30.67;;;;;;;;;;10093710;28;20121;-65
2022/12/13 23:47:55;;;;;;;41.10;30.17;;;;;;;;;;10105134;28;20035;-64
2022/12/13 23:52:52;;;;;;;43.17;30.77;;;;;;;;;;10087572;28;20634;-64
2022/12/13 23:57:48;;;;;;;44.05;30.83;;;;;;;;;;10113092;28;20046;-64
